createdAt,value
2017-11-14T00:00:38.746Z,58.90
2017-11-14T00:03:04.837Z,60.50
2017-11-14T00:05:30.900Z,39.37
2017-11-14T00:07:57.294Z,52.37
2017-11-14T00:10:23.956Z,34.77
2017-11-14T00:12:50.062Z,51.90
2017-11-14T00:15:16.180Z,67.43
2017-11-14T00:17:42.286Z,52.17
2017-11-14T00:20:08.756Z,44.63
2017-11-14T00:22:35.126Z,54.43
2017-11-14T00:25:01.256Z,35.33
2017-11-14T00:27:27.361Z,46.83
2017-11-14T00:29:53.464Z,53.70
2017-11-14T00:32:20.211Z,59.43
2017-11-14T00:34:46.368Z,63.47
2017-11-14T00:37:12.476Z,63.57
2017-11-14T00:39:38.570Z,48.80
2017-11-14T00:42:04.764Z,26.10
2017-11-14T00:44:31.242Z,36.10
2017-11-14T00:46:57.486Z,34.63
2017-11-14T00:49:23.693Z,38.10
2017-11-14T00:51:49.850Z,26.97
2017-11-14T00:54:16.000Z,33.27
2017-11-14T00:56:42.553Z,18.53
2017-11-14T00:59:08.661Z,55.30
2017-11-14T01:01:34.766Z,36.50
2017-11-14T01:04:01.802Z,25.47
2017-11-14T01:06:27.923Z,30.43
2017-11-14T01:08:54.602Z,28.73
2017-11-14T01:11:20.799Z,30.13
2017-11-14T01:13:46.966Z,32.77
2017-11-14T01:16:13.084Z,24.93
2017-11-14T01:18:39.213Z,43.40
2017-11-14T01:21:05.814Z,61.00
2017-11-14T01:23:31.952Z,63.70
2017-11-14T01:25:58.696Z,69.47
2017-11-14T01:28:24.816Z,88.90
2017-11-14T01:30:50.944Z,42.57
2017-11-14T01:33:17.449Z,54.40
2017-11-14T01:35:43.746Z,23.43
2017-11-14T01:38:09.883Z,43.13
2017-11-14T01:40:36.171Z,26.77
2017-11-14T01:43:02.276Z,27.63
2017-11-14T01:45:29.589Z,44.87
2017-11-14T01:47:55.707Z,14.00
2017-11-14T01:50:21.847Z,40.40
2017-11-14T01:52:48.098Z,33.27
2017-11-14T01:55:14.588Z,24.50
2017-11-14T01:57:41.166Z,16.60
2017-11-14T02:00:07.432Z,22.27
2017-11-14T02:02:33.588Z,16.17
2017-11-14T02:04:59.857Z,22.90
2017-11-14T02:07:26.020Z,13.90
2017-11-14T02:09:52.101Z,13.00
2017-11-14T02:12:18.268Z,27.57
2017-11-14T02:14:44.375Z,17.20
2017-11-14T02:17:10.531Z,14.73
2017-11-14T02:19:36.684Z,32.80
2017-11-14T02:22:03.199Z,15.50
2017-11-14T02:24:29.263Z,17.00
2017-11-14T02:27:00.308Z,9.03
2017-11-14T02:29:26.379Z,24.80
2017-11-14T02:31:52.496Z,125.27
2017-11-14T02:34:18.942Z,101.57
2017-11-14T02:36:45.260Z,35.03
2017-11-14T02:39:11.628Z,75.20
2017-11-14T02:41:37.744Z,26.73
2017-11-14T02:44:03.816Z,70.27
2017-11-14T02:46:30.275Z,45.67
2017-11-14T02:48:56.728Z,17.67
2017-11-14T02:51:22.905Z,45.63
2017-11-14T02:53:48.979Z,36.50
2017-11-14T02:56:15.142Z,76.30
2017-11-14T02:58:41.728Z,52.23
2017-11-14T03:01:07.956Z,66.87
2017-11-14T03:03:34.518Z,83.57
2017-11-14T03:06:00.677Z,66.47
2017-11-14T03:08:26.816Z,78.90
2017-11-14T03:10:53.363Z,71.43
2017-11-14T03:13:19.495Z,65.20
2017-11-14T03:15:45.702Z,56.77
2017-11-14T03:18:11.967Z,26.53
2017-11-14T03:20:38.136Z,69.53
2017-11-14T03:23:04.716Z,30.47
2017-11-14T03:25:30.874Z,68.03
2017-11-14T03:27:56.989Z,30.20
2017-11-14T03:30:23.081Z,77.20
2017-11-14T03:32:49.147Z,68.67
2017-11-14T03:35:15.559Z,70.90
2017-11-14T03:37:41.608Z,50.20
2017-11-14T03:40:07.676Z,31.90
2017-11-14T03:42:34.199Z,26.57
2017-11-14T03:45:00.305Z,38.37
2017-11-14T03:47:26.387Z,18.63
2017-11-14T03:49:52.488Z,30.67
2017-11-14T03:52:18.560Z,9.83
2017-11-14T03:54:44.972Z,17.50
2017-11-14T03:57:11.079Z,29.53
2017-11-14T03:59:37.249Z,13.53
2017-11-14T04:02:03.380Z,30.70
2017-11-14T04:04:29.456Z,20.60
2017-11-14T04:06:55.967Z,34.97
2017-11-14T04:09:22.173Z,31.87
2017-11-14T04:11:48.236Z,28.80
2017-11-14T04:14:14.463Z,31.60
2017-11-14T04:16:40.508Z,20.70
2017-11-14T04:19:06.955Z,29.67
2017-11-14T04:21:33.052Z,39.07
2017-11-14T04:23:59.135Z,39.70
2017-11-14T04:26:25.223Z,29.20
2017-11-14T04:28:51.317Z,14.97
2017-11-14T04:31:17.801Z,23.10
2017-11-14T04:33:43.956Z,32.47
2017-11-14T04:36:10.135Z,16.73
2017-11-14T04:38:36.223Z,23.80
2017-11-14T04:41:02.305Z,19.63
2017-11-14T04:43:29.009Z,20.73
2017-11-14T04:45:55.154Z,19.40
2017-11-14T04:48:21.311Z,15.53
2017-11-14T04:50:47.539Z,18.70
2017-11-14T04:53:13.735Z,16.30
2017-11-14T04:55:40.299Z,19.77
2017-11-14T04:58:06.590Z,15.80
2017-11-14T05:00:32.699Z,21.50
2017-11-14T05:02:58.795Z,12.80
2017-11-14T05:05:24.853Z,15.53
2017-11-14T05:07:51.306Z,20.53
2017-11-14T05:10:17.401Z,21.37
2017-11-14T05:12:43.526Z,14.87
2017-11-14T05:15:09.695Z,15.67
2017-11-14T05:17:38.283Z,14.00
2017-11-14T05:20:06.071Z,13.67
2017-11-14T05:22:32.188Z,10.50
2017-11-14T05:24:58.256Z,14.03
2017-11-14T05:27:24.362Z,12.00
2017-11-14T05:29:50.680Z,13.90
2017-11-14T05:32:17.146Z,14.73
2017-11-14T05:34:43.359Z,15.00
2017-11-14T05:37:09.652Z,14.80
2017-11-14T05:39:36.133Z,10.07
2017-11-14T05:42:02.402Z,15.80
2017-11-14T05:44:28.514Z,9.93
2017-11-14T05:46:54.727Z,12.60
2017-11-14T05:49:20.867Z,13.20
2017-11-14T05:51:47.534Z,11.00
2017-11-14T05:54:13.649Z,12.37
2017-11-14T05:56:39.789Z,10.40
2017-11-14T05:59:05.969Z,11.20
2017-11-14T06:01:32.224Z,10.87
2017-11-14T06:03:58.845Z,11.60
2017-11-14T06:06:24.948Z,10.03
2017-11-14T06:08:51.158Z,12.37
2017-11-14T06:11:17.268Z,14.40
2017-11-14T06:13:43.392Z,13.93
2017-11-14T06:16:10.515Z,12.57
2017-11-14T06:18:36.736Z,12.23
2017-11-14T06:21:02.947Z,11.30
2017-11-14T06:23:29.105Z,11.37
2017-11-14T06:25:55.272Z,14.83
2017-11-14T06:28:21.834Z,10.97
2017-11-14T06:30:48.073Z,16.30
2017-11-14T06:33:14.254Z,13.27
2017-11-14T06:35:40.421Z,10.50
2017-11-14T06:38:06.612Z,13.77
2017-11-14T06:40:33.089Z,12.37
2017-11-14T06:42:59.261Z,11.00
2017-11-14T06:45:25.425Z,9.53
2017-11-14T06:47:52.170Z,13.73
2017-11-14T06:50:18.288Z,11.57
2017-11-14T06:52:44.418Z,14.10
2017-11-14T06:55:10.625Z,16.00
2017-11-14T06:57:37.127Z,13.67
2017-11-14T07:00:03.905Z,17.83
2017-11-14T07:02:30.096Z,18.77
2017-11-14T07:04:56.328Z,30.03
2017-11-14T07:07:23.338Z,21.93
2017-11-14T07:09:49.649Z,22.17
2017-11-14T07:12:16.053Z,27.57
2017-11-14T07:14:42.396Z,36.10
2017-11-14T07:17:09.350Z,23.23
2017-11-14T07:19:36.140Z,24.97
2017-11-14T07:22:02.547Z,23.87
2017-11-14T07:24:28.881Z,17.00
2017-11-14T07:26:55.918Z,19.27
2017-11-14T07:29:22.495Z,16.40
2017-11-14T07:31:48.813Z,18.37
2017-11-14T07:34:15.104Z,14.50
2017-11-14T07:36:41.505Z,14.20
2017-11-14T07:39:10.573Z,11.30
2017-11-14T07:41:37.190Z,13.47
2017-11-14T07:44:03.655Z,13.50
2017-11-14T07:46:29.941Z,10.70
2017-11-14T07:48:56.274Z,25.47
2017-11-14T07:51:22.934Z,26.70
2017-11-14T07:53:49.179Z,17.60
2017-11-14T07:56:15.432Z,24.27
2017-11-14T07:58:41.673Z,20.27
2017-11-14T08:01:08.160Z,20.00
2017-11-14T08:03:35.593Z,22.33
2017-11-14T08:06:02.101Z,28.53
2017-11-14T08:08:28.361Z,30.97
2017-11-14T08:10:54.537Z,17.07
2017-11-14T08:13:20.762Z,13.67
2017-11-14T08:15:47.727Z,14.70
2017-11-14T08:18:14.035Z,14.80
2017-11-14T08:20:40.249Z,15.67
2017-11-14T08:23:06.450Z,16.90
2017-11-14T08:25:32.631Z,13.63
2017-11-14T08:27:59.254Z,17.70
2017-11-14T08:30:26.465Z,14.23
2017-11-14T08:32:52.612Z,12.37
2017-11-14T08:35:18.797Z,14.87
2017-11-14T08:37:44.984Z,15.90
2017-11-14T08:40:11.624Z,13.27
2017-11-14T08:42:38.182Z,13.00
2017-11-14T08:45:05.623Z,12.60
2017-11-14T08:47:31.926Z,11.27
2017-11-14T08:49:58.094Z,13.50
2017-11-14T08:52:24.560Z,12.67
2017-11-14T08:54:50.777Z,11.23
2017-11-14T08:57:16.979Z,13.10
2017-11-14T08:59:43.467Z,12.50
2017-11-14T09:02:09.626Z,12.43
2017-11-14T09:04:35.768Z,14.00
2017-11-14T09:07:02.330Z,17.13
2017-11-14T09:09:28.439Z,17.73
2017-11-14T09:11:54.966Z,16.50
2017-11-14T09:14:21.113Z,20.30
2017-11-14T09:16:47.246Z,21.70
2017-11-14T09:19:13.685Z,23.47
2017-11-14T09:21:39.872Z,15.03
2017-11-14T09:24:05.985Z,18.20
2017-11-14T09:26:32.175Z,17.90
2017-11-14T09:28:58.347Z,16.37
2017-11-14T09:31:24.834Z,17.80
2017-11-14T09:33:50.935Z,18.90
2017-11-14T09:36:17.061Z,19.10
2017-11-14T09:38:43.882Z,17.23
2017-11-14T09:41:10.131Z,18.57
2017-11-14T09:43:36.243Z,16.90
2017-11-14T09:46:02.807Z,17.73
2017-11-14T09:48:28.982Z,15.97
2017-11-14T09:50:55.132Z,19.93
2017-11-14T09:53:21.332Z,19.07
2017-11-14T09:55:47.480Z,24.20
2017-11-14T09:58:13.940Z,20.03
2017-11-14T10:00:39.984Z,20.00
2017-11-14T10:03:06.058Z,18.77
2017-11-14T10:05:32.181Z,14.97
2017-11-14T10:07:58.236Z,12.40
2017-11-14T10:10:24.773Z,15.57
2017-11-14T10:12:50.942Z,17.50
2017-11-14T10:15:17.240Z,13.50
2017-11-14T10:17:43.372Z,15.43
2017-11-14T10:20:09.434Z,13.90
2017-11-14T10:22:35.818Z,12.67
2017-11-14T10:25:01.954Z,14.70
2017-11-14T10:27:28.174Z,13.03
2017-11-14T10:29:54.306Z,13.83
2017-11-14T10:32:20.468Z,15.87
2017-11-14T10:34:46.907Z,14.03
2017-11-14T10:37:12.938Z,13.40
2017-11-14T10:39:39.008Z,13.47
2017-11-14T10:42:05.406Z,14.17
2017-11-14T10:44:31.578Z,12.93
2017-11-14T10:46:58.462Z,14.17
2017-11-14T10:49:24.566Z,14.77
2017-11-14T10:51:50.655Z,12.53
2017-11-14T10:54:17.156Z,14.50
2017-11-14T10:56:43.293Z,13.60
2017-11-14T10:59:09.423Z,16.23
2017-11-14T11:01:35.509Z,14.23
2017-11-14T11:04:01.564Z,12.87
2017-11-14T11:06:28.078Z,11.17
2017-11-14T11:08:54.157Z,15.70
2017-11-14T11:11:20.304Z,11.07
2017-11-14T11:13:46.501Z,11.97
2017-11-14T11:16:12.778Z,17.00
2017-11-14T11:18:39.330Z,14.10
2017-11-14T11:21:05.384Z,14.00
2017-11-14T11:23:31.455Z,11.73
2017-11-14T11:25:57.581Z,12.70
2017-11-14T11:28:23.648Z,16.13
2017-11-14T11:30:50.133Z,13.00
2017-11-14T11:33:16.371Z,10.67
2017-11-14T11:35:42.504Z,10.57
2017-11-14T11:38:09.070Z,14.60
2017-11-14T11:40:35.213Z,11.50
2017-11-14T11:43:01.999Z,13.27
2017-11-14T11:45:28.141Z,13.30
2017-11-14T11:47:54.195Z,12.13
2017-11-14T11:50:20.283Z,15.87
2017-11-14T11:52:46.365Z,13.00
2017-11-14T11:55:12.786Z,13.40
2017-11-14T11:57:38.856Z,13.40
2017-11-14T12:00:04.959Z,14.20
2017-11-14T12:02:31.105Z,12.53
2017-11-14T12:04:57.233Z,14.80
2017-11-14T12:07:23.739Z,12.50
2017-11-14T12:09:49.828Z,14.47
2017-11-14T12:12:15.919Z,12.50
2017-11-14T12:14:42.048Z,17.97
2017-11-14T12:17:08.280Z,11.50
2017-11-14T12:19:34.788Z,11.30
2017-11-14T12:22:00.798Z,13.13
2017-11-14T12:24:26.952Z,16.40
2017-11-14T12:26:53.557Z,12.50
2017-11-14T12:29:19.639Z,12.20
2017-11-14T12:31:45.701Z,11.33
2017-11-14T12:34:11.754Z,13.93
2017-11-14T12:36:37.940Z,11.67
2017-11-14T12:39:04.498Z,14.47
2017-11-14T12:41:30.627Z,10.63
2017-11-14T12:43:56.776Z,12.83
2017-11-14T12:46:22.895Z,10.23
2017-11-14T12:48:49.004Z,11.30
2017-11-14T12:51:15.489Z,12.70
2017-11-14T12:53:41.871Z,10.20
2017-11-14T12:56:07.973Z,8.70
2017-11-14T12:58:34.094Z,10.13
2017-11-14T13:01:00.203Z,17.67
2017-11-14T13:03:26.633Z,11.70
2017-11-14T13:05:52.732Z,9.37
2017-11-14T13:08:18.841Z,8.33
2017-11-14T13:10:45.341Z,8.97
2017-11-14T13:13:11.526Z,12.03
2017-11-14T13:15:37.625Z,9.60
2017-11-14T13:18:04.134Z,7.67
2017-11-14T13:20:30.263Z,7.07
2017-11-14T13:22:56.380Z,8.00
2017-11-14T13:25:22.828Z,9.53
2017-11-14T13:27:48.912Z,9.97
2017-11-14T13:30:14.953Z,11.60
2017-11-14T13:32:41.004Z,17.07
2017-11-14T13:35:07.124Z,9.00
2017-11-14T13:37:33.619Z,14.43
2017-11-14T13:39:59.695Z,12.77
2017-11-14T13:42:25.795Z,10.70
2017-11-14T13:44:51.906Z,13.17
2017-11-14T13:47:18.119Z,8.17
2017-11-14T13:49:44.648Z,12.13
2017-11-14T13:52:10.811Z,6.47
2017-11-14T13:54:36.938Z,10.20
2017-11-14T13:57:03.141Z,12.87
2017-11-14T13:59:29.225Z,5.50
2017-11-14T14:01:55.657Z,6.33
2017-11-14T14:04:21.757Z,7.20
2017-11-14T14:06:47.853Z,6.93
2017-11-14T14:09:14.482Z,10.03
2017-11-14T14:11:40.703Z,9.33
2017-11-14T14:14:07.171Z,8.50
2017-11-14T14:16:33.618Z,21.57
2017-11-14T14:18:59.705Z,10.63
2017-11-14T14:21:25.837Z,9.07
2017-11-14T14:23:52.379Z,11.17
2017-11-14T14:26:18.533Z,17.13
2017-11-14T14:28:44.685Z,13.03
2017-11-14T14:31:10.774Z,9.53
2017-11-14T14:33:36.888Z,17.13
2017-11-14T14:36:03.369Z,11.73
2017-11-14T14:38:29.463Z,10.30
2017-11-14T14:40:55.746Z,10.73
2017-11-14T14:43:21.937Z,9.77
2017-11-14T14:45:48.084Z,17.23
2017-11-14T14:48:17.804Z,15.17
2017-11-14T14:50:44.202Z,7.43
2017-11-14T14:53:10.491Z,16.90
2017-11-14T14:55:36.845Z,16.30
2017-11-14T14:58:03.037Z,15.87
2017-11-14T15:00:29.767Z,23.63
2017-11-14T15:02:56.979Z,24.40
2017-11-14T15:05:23.222Z,20.57
2017-11-14T15:07:49.529Z,22.43
2017-11-14T15:10:15.957Z,16.93
2017-11-14T15:12:42.749Z,21.30
2017-11-14T15:15:09.036Z,23.37
2017-11-14T15:17:35.363Z,20.20
2017-11-14T15:20:01.859Z,18.73
2017-11-14T15:22:28.259Z,13.40
2017-11-14T15:24:54.904Z,15.20
2017-11-14T15:27:21.287Z,17.07
2017-11-14T15:29:54.693Z,19.57
2017-11-14T15:32:21.069Z,16.13
2017-11-14T15:34:48.563Z,11.60
2017-11-14T15:37:14.874Z,20.03
2017-11-14T15:39:41.221Z,17.17
2017-11-14T15:42:07.949Z,21.30
2017-11-14T15:44:34.236Z,12.57
2017-11-14T15:47:00.505Z,16.60
2017-11-14T15:49:27.162Z,15.50
2017-11-14T15:51:53.366Z,24.63
2017-11-14T15:54:19.646Z,17.27
2017-11-14T15:56:45.834Z,16.10
2017-11-14T15:59:12.216Z,14.37
2017-11-14T16:01:38.798Z,17.20
2017-11-14T16:04:05.068Z,16.27
2017-11-14T16:06:31.227Z,15.37
2017-11-14T16:08:57.699Z,19.20
2017-11-14T16:11:23.991Z,22.60
2017-11-14T16:13:50.508Z,19.87
2017-11-14T16:16:17.466Z,32.60
2017-11-14T16:18:43.711Z,33.00
2017-11-14T16:21:09.946Z,31.93
2017-11-14T16:23:36.194Z,32.47
2017-11-14T16:26:02.882Z,30.13
2017-11-14T16:28:29.168Z,24.27
2017-11-14T16:30:56.093Z,25.33
2017-11-14T16:33:22.462Z,20.40
2017-11-14T16:35:48.954Z,23.20
2017-11-14T16:38:15.497Z,22.27
2017-11-14T16:40:41.626Z,17.57
2017-11-14T16:43:07.829Z,22.27
2017-11-14T16:48:07.287Z,23.30
2017-11-14T16:50:33.918Z,18.20
2017-11-14T16:53:00.135Z,19.33
2017-11-14T16:55:26.367Z,25.40
2017-11-14T16:57:52.616Z,32.50
2017-11-14T17:00:18.744Z,26.20
2017-11-14T17:02:45.425Z,32.57
2017-11-14T17:05:11.668Z,34.17
2017-11-14T17:07:37.908Z,53.27
2017-11-14T17:10:04.826Z,74.13
2017-11-14T17:12:31.082Z,58.30
2017-11-14T17:14:57.336Z,42.37
2017-11-14T17:17:23.576Z,35.90
2017-11-14T17:19:49.759Z,27.47
2017-11-14T17:22:16.388Z,30.90
2017-11-14T17:24:42.681Z,27.47
2017-11-14T17:27:09.389Z,28.23
2017-11-14T17:29:39.888Z,36.83
2017-11-14T17:32:06.239Z,30.87
2017-11-14T17:34:32.819Z,27.30
2017-11-14T17:36:59.183Z,26.27
2017-11-14T17:39:25.470Z,34.90
2017-11-14T17:41:52.065Z,33.57
2017-11-14T17:44:18.341Z,43.00
2017-11-14T17:46:44.555Z,28.47
2017-11-14T17:49:11.254Z,30.23
2017-11-14T17:51:37.528Z,30.13
2017-11-14T17:54:03.696Z,25.73
2017-11-14T17:56:30.293Z,37.33
2017-11-14T17:58:57.078Z,36.03
2017-11-14T18:01:23.261Z,37.47
2017-11-14T18:03:49.438Z,33.10
2017-11-14T18:06:15.586Z,37.57
2017-11-14T18:08:42.390Z,24.23
2017-11-14T18:11:08.873Z,35.50
2017-11-14T18:13:41.576Z,39.87
2017-11-14T18:16:09.138Z,45.43
2017-11-14T18:18:35.531Z,32.37
2017-11-14T18:21:01.795Z,34.40
2017-11-14T18:23:29.087Z,24.90
2017-11-14T18:25:56.494Z,24.10
2017-11-14T18:28:23.326Z,24.53
2017-11-14T18:30:49.718Z,25.93
2017-11-14T18:33:16.581Z,26.73
2017-11-14T18:35:43.263Z,27.67
2017-11-14T18:38:09.520Z,21.40
2017-11-14T18:40:36.138Z,23.10
2017-11-14T18:43:02.347Z,19.40
2017-11-14T18:45:28.773Z,30.00
2017-11-14T18:47:55.117Z,45.33
2017-11-14T18:50:21.502Z,35.83
2017-11-14T18:52:48.195Z,28.63
2017-11-14T18:55:14.498Z,32.17
2017-11-14T18:57:40.906Z,24.20
2017-11-14T19:00:07.220Z,33.57
2017-11-14T19:02:33.535Z,26.23
2017-11-14T19:05:00.143Z,26.50
2017-11-14T19:07:26.419Z,61.70
2017-11-14T19:09:52.786Z,33.10
2017-11-14T19:12:19.214Z,25.00
2017-11-14T19:14:45.599Z,28.00
2017-11-14T19:17:12.440Z,24.57
2017-11-14T19:19:38.998Z,35.00
2017-11-14T19:22:11.837Z,25.83
2017-11-14T19:24:39.709Z,28.13
2017-11-14T19:27:06.250Z,32.97
2017-11-14T19:29:32.801Z,27.40
2017-11-14T19:31:59.441Z,30.13
2017-11-14T19:34:26.915Z,25.40
2017-11-14T19:36:53.692Z,31.97
2017-11-14T19:39:21.230Z,39.33
2017-11-14T19:41:48.234Z,41.63
2017-11-14T19:44:15.145Z,28.70
2017-11-14T19:46:41.981Z,34.87
2017-11-14T19:49:08.523Z,40.00
2017-11-14T19:51:35.282Z,34.00
2017-11-14T19:54:01.676Z,33.03
2017-11-14T19:56:28.176Z,36.37
2017-11-14T19:58:54.633Z,43.10
2017-11-14T20:01:21.142Z,38.43
2017-11-14T20:03:48.134Z,39.07
2017-11-14T20:16:02.504Z,30.83
2017-11-14T20:18:29.058Z,33.47
2017-11-14T20:20:55.459Z,30.00
2017-11-14T20:23:22.110Z,30.10
2017-11-14T20:25:49.779Z,29.80
2017-11-14T20:28:16.672Z,38.73
2017-11-14T20:30:43.126Z,36.00
2017-11-14T20:33:10.393Z,27.63
2017-11-14T20:35:36.837Z,35.07
2017-11-14T20:38:03.422Z,26.97
2017-11-14T20:40:30.492Z,29.57
2017-11-14T20:42:56.926Z,34.87
2017-11-14T20:45:23.412Z,34.20
2017-11-14T20:47:50.630Z,33.47
2017-11-14T20:50:16.947Z,30.77
2017-11-14T20:52:43.712Z,30.60
2017-11-14T20:55:10.005Z,30.10
2017-11-14T20:57:36.232Z,29.77
2017-11-14T21:00:02.949Z,35.03
2017-11-14T21:02:29.195Z,30.13
2017-11-14T21:04:55.844Z,32.20
2017-11-14T21:07:22.048Z,28.83
2017-11-14T21:09:48.257Z,32.73
2017-11-14T21:12:16.268Z,28.57
2017-11-14T21:14:42.473Z,30.43
2017-11-14T21:17:08.680Z,30.07
2017-11-14T21:19:35.280Z,29.77
2017-11-14T21:22:02.045Z,35.73
2017-11-14T21:24:28.246Z,36.10
2017-11-14T21:26:54.813Z,34.40
2017-11-14T21:29:20.922Z,29.70
2017-11-14T21:31:47.053Z,32.10
2017-11-14T21:34:13.811Z,25.77
2017-11-14T21:36:39.939Z,24.33
2017-11-14T21:39:06.056Z,36.20
2017-11-14T21:41:32.593Z,31.33
2017-11-14T21:44:01.949Z,31.20
2017-11-14T21:46:28.289Z,29.73
2017-11-14T21:48:54.997Z,21.80
2017-11-14T21:51:21.231Z,25.43
2017-11-14T21:53:47.347Z,27.27
2017-11-14T21:56:13.538Z,26.63
2017-11-14T21:58:40.905Z,27.97
2017-11-14T22:01:07.435Z,23.93
2017-11-14T22:03:33.580Z,29.20
2017-11-14T22:06:00.546Z,26.20
2017-11-14T22:08:26.716Z,31.30
2017-11-14T22:10:52.881Z,28.00
2017-11-14T22:13:19.419Z,26.63
2017-11-14T22:15:45.569Z,23.37
2017-11-14T22:18:11.725Z,28.77
2017-11-14T22:20:38.283Z,27.03
2017-11-14T22:23:04.438Z,27.57
2017-11-14T22:25:30.629Z,26.63
2017-11-14T22:27:56.806Z,29.17
2017-11-14T22:30:23.015Z,27.20
2017-11-14T22:32:49.603Z,28.53
2017-11-14T22:35:15.832Z,23.27
2017-11-14T22:37:41.979Z,31.37
2017-11-14T22:40:08.129Z,26.57
2017-11-14T22:42:34.297Z,28.63
2017-11-14T22:45:00.751Z,26.47
2017-11-14T22:47:26.981Z,35.30
2017-11-14T22:49:53.125Z,24.60
2017-11-14T22:52:19.317Z,31.80
2017-11-14T22:54:45.499Z,28.77
2017-11-14T22:57:12.072Z,33.03
2017-11-14T22:59:38.143Z,30.57
2017-11-14T23:02:04.320Z,25.23
2017-11-14T23:04:30.566Z,25.57
2017-11-14T23:06:56.804Z,27.70
2017-11-14T23:09:23.313Z,30.83
2017-11-14T23:11:49.517Z,29.60
2017-11-14T23:14:15.683Z,29.43
2017-11-14T23:16:42.210Z,30.73
2017-11-14T23:19:08.332Z,29.50
2017-11-14T23:21:34.513Z,27.80
2017-11-14T23:24:00.751Z,30.70
2017-11-14T23:26:26.884Z,25.30
2017-11-14T23:28:53.443Z,27.73
2017-11-14T23:31:19.588Z,30.43
2017-11-14T23:33:45.730Z,28.60
2017-11-14T23:36:11.892Z,26.50
2017-11-14T23:38:37.997Z,27.37
2017-11-14T23:41:04.483Z,27.30
2017-11-14T23:43:30.616Z,27.00
2017-11-14T23:45:56.777Z,26.97
2017-11-14T23:48:23.409Z,28.50
2017-11-14T23:50:49.542Z,25.80
2017-11-14T23:53:15.691Z,30.20
2017-11-14T23:55:41.898Z,30.67
2017-11-14T23:58:08.030Z,31.30
